createdAt,value
2019-04-29T00:02:31.124Z,95251.34
2019-04-29T00:05:38.829Z,95245.63
2019-04-29T00:08:46.349Z,95240.80
2019-04-29T00:11:54.524Z,95245.50
2019-04-29T00:15:13.396Z,95244.05
2019-04-29T00:18:33.448Z,95246.95
2019-04-29T00:21:41.279Z,95244.21
2019-04-29T00:24:48.685Z,95247.38
2019-04-29T00:27:56.076Z,95247.85
2019-04-29T00:31:04.016Z,95251.56
2019-04-29T00:34:11.354Z,95249.90
2019-04-29T00:37:30.248Z,95251.17
2019-04-29T00:41:00.284Z,95247.07
2019-04-29T00:44:10.138Z,95248.45
2019-04-29T00:47:18.059Z,95244.66
2019-04-29T00:50:25.337Z,95251.02
2019-04-29T00:53:33.616Z,95246.69
2019-04-29T00:56:41.157Z,95245.02
2019-04-29T00:59:48.811Z,95246.73
2019-04-29T01:02:56.511Z,95246.59
2019-04-29T01:06:04.297Z,95241.39
2019-04-29T01:09:14.154Z,95244.70
2019-04-29T01:12:22.009Z,95248.13
2019-04-29T01:15:29.375Z,95247.36
2019-04-29T01:18:37.155Z,95247.19
2019-04-29T01:21:45.183Z,95244.21
2019-04-29T01:24:52.871Z,95246.29
2019-04-29T01:28:08.544Z,95239.30
2019-04-29T01:31:20.770Z,95244.36
2019-04-29T01:34:37.176Z,95236.44
2019-04-29T01:37:44.583Z,95238.91
2019-04-29T01:41:02.241Z,95236.71
2019-04-29T01:44:09.917Z,95240.86
2019-04-29T01:47:17.409Z,95235.23
2019-04-29T01:50:25.407Z,95241.73
2019-04-29T01:53:32.887Z,95237.75
2019-04-29T01:56:40.512Z,95230.89
2019-04-29T01:59:48.203Z,95242.45
2019-04-29T02:02:55.597Z,95238.78
2019-04-29T02:06:03.088Z,95234.86
2019-04-29T02:09:17.108Z,95233.92
2019-04-29T02:12:24.501Z,95229.94
2019-04-29T02:15:31.928Z,95228.81
2019-04-29T02:18:39.353Z,95225.46
2019-04-29T02:22:06.182Z,95225.78
2019-04-29T02:25:18.566Z,95224.34
2019-04-29T02:28:26.187Z,95220.86
2019-04-29T02:31:41.375Z,95225.28
2019-04-29T02:34:48.958Z,95223.36
2019-04-29T02:37:56.814Z,95229.47
2019-04-29T02:41:14.169Z,95226.02
2019-04-29T02:44:21.464Z,95225.48
2019-04-29T02:47:29.068Z,95224.09
2019-04-29T02:50:36.332Z,95220.02
2019-04-29T02:53:43.973Z,95220.36
2019-04-29T02:56:59.058Z,95225.91
2019-04-29T03:00:25.975Z,95223.84
2019-04-29T03:03:51.613Z,95224.09
2019-04-29T03:06:59.691Z,95229.47
2019-04-29T03:10:07.590Z,95222.13
2019-04-29T03:13:15.342Z,95219.58
2019-04-29T03:16:23.088Z,95220.36
2019-04-29T03:19:34.958Z,95221.03
2019-04-29T03:22:43.413Z,95223.11
2019-04-29T03:25:51.214Z,95225.83
2019-04-29T03:28:58.594Z,95223.00
2019-04-29T03:32:06.189Z,95223.30
2019-04-29T03:35:13.689Z,95219.41
2019-04-29T03:38:21.450Z,95211.86
2019-04-29T03:41:29.247Z,95217.17
2019-04-29T03:44:36.868Z,95228.03
2019-04-29T03:47:44.172Z,95219.74
2019-04-29T03:50:51.785Z,95223.62
2019-04-29T03:53:59.239Z,95225.68
2019-04-29T03:57:08.232Z,95215.60
2019-04-29T04:00:17.969Z,95222.91
2019-04-29T04:03:32.907Z,95223.61
2019-04-29T04:06:58.788Z,95222.65
2019-04-29T04:10:09.845Z,95227.34
2019-04-29T04:13:18.005Z,95227.30
2019-04-29T04:16:32.889Z,95235.01
2019-04-29T04:19:40.419Z,95236.17
2019-04-29T04:22:48.324Z,95240.20
2019-04-29T04:25:56.242Z,95240.80
2019-04-29T04:29:03.882Z,95243.17
2019-04-29T04:32:11.510Z,95239.31
2019-04-29T04:35:19.732Z,95239.88
2019-04-29T04:38:27.168Z,95239.63
2019-04-29T04:41:35.456Z,95243.77
2019-04-29T04:44:48.810Z,95247.66
2019-04-29T04:47:56.168Z,95254.57
2019-04-29T04:51:03.657Z,95250.58
2019-04-29T04:54:11.751Z,95257.02
2019-04-29T04:57:19.538Z,95253.85
2019-04-29T05:00:29.075Z,95258.25
2019-04-29T05:03:36.767Z,95260.95
2019-04-29T05:07:19.666Z,95263.62
2019-04-29T05:14:03.532Z,95253.34
2019-04-29T05:17:10.932Z,95260.94
2019-04-29T05:20:20.302Z,95253.91
2019-04-29T05:23:28.007Z,95265.18
2019-04-29T05:26:35.296Z,95259.66
2019-04-29T05:29:42.677Z,95261.95
2019-04-29T05:32:50.604Z,95260.22
2019-04-29T05:36:04.530Z,95263.75
2019-04-29T05:39:23.875Z,95265.59
2019-04-29T05:42:31.285Z,95263.11
2019-04-29T05:45:47.840Z,95265.80
2019-04-29T05:48:55.846Z,95267.84
2019-04-29T05:52:14.472Z,95269.44
2019-04-29T05:55:21.863Z,95273.19
2019-04-29T05:58:32.998Z,95274.88
2019-04-29T06:01:42.747Z,95272.70
2019-04-29T06:04:51.936Z,95280.03
2019-04-29T06:08:01.157Z,95281.55
2019-04-29T06:11:06.698Z,95287.35
2019-04-29T06:14:14.511Z,95287.00
2019-04-29T06:17:22.282Z,95291.97
2019-04-29T06:20:29.836Z,95290.48
2019-04-29T06:23:37.364Z,95286.05
2019-04-29T06:26:45.239Z,95287.20
2019-04-29T06:29:52.866Z,95292.88
2019-04-29T06:33:00.538Z,95296.36
2019-04-29T06:36:09.117Z,95293.09
2019-04-29T06:39:17.580Z,95298.20
2019-04-29T06:42:26.692Z,95302.38
2019-04-29T06:45:34.126Z,95305.19
2019-04-29T06:48:41.823Z,95298.71
2019-04-29T06:51:49.960Z,95305.13
2019-04-29T06:54:57.895Z,95307.66
2019-04-29T06:58:05.391Z,95301.49
2019-04-29T07:01:12.785Z,95303.20
2019-04-29T07:04:20.479Z,95303.16
2019-04-29T07:07:28.767Z,95305.44
2019-04-29T07:10:36.263Z,95301.42
2019-04-29T07:13:46.508Z,95303.83
2019-04-29T07:16:52.884Z,95307.23
2019-04-29T07:20:02.033Z,95306.80
2019-04-29T07:23:09.914Z,95304.29
2019-04-29T07:26:17.812Z,95308.41
2019-04-29T07:29:30.547Z,95309.42
2019-04-29T07:32:35.303Z,95311.66
2019-04-29T07:35:47.736Z,95306.45
2019-04-29T07:38:56.641Z,95312.12
2019-04-29T07:42:03.414Z,95308.42
2019-04-29T07:45:28.030Z,95309.64
2019-04-29T07:48:36.820Z,95310.05
2019-04-29T07:51:45.666Z,95309.47
2019-04-29T07:54:56.036Z,95309.75
2019-04-29T07:58:02.691Z,95312.40
2019-04-29T08:01:11.357Z,95318.30
2019-04-29T08:04:18.741Z,95315.81
2019-04-29T08:07:26.490Z,95318.02
2019-04-29T08:10:34.605Z,95317.97
2019-04-29T08:13:44.444Z,95317.59
2019-04-29T08:16:52.145Z,95319.48
2019-04-29T08:20:00.647Z,95318.63
2019-04-29T08:23:09.013Z,95315.86
2019-04-29T08:26:17.513Z,95316.63
2019-04-29T08:29:25.926Z,95310.83
2019-04-29T08:32:36.514Z,95304.77
2019-04-29T08:35:46.629Z,95307.47
2019-04-29T08:38:53.390Z,95304.72
2019-04-29T08:42:08.560Z,95317.78
2019-04-29T08:45:22.662Z,95311.52
2019-04-29T08:48:30.570Z,95314.06
2019-04-29T08:51:38.370Z,95312.55
2019-04-29T08:54:45.815Z,95309.27
2019-04-29T08:57:53.927Z,95305.10
2019-04-29T09:01:33.900Z,95304.84
2019-04-29T09:04:52.970Z,95307.75
2019-04-29T09:07:52.526Z,95310.67
2019-04-29T09:10:58.979Z,95303.70
2019-04-29T09:14:06.610Z,95300.47
2019-04-29T09:17:20.609Z,95295.75
2019-04-29T09:20:24.025Z,95299.13
2019-04-29T09:23:33.765Z,95293.28
2019-04-29T09:26:50.159Z,95288.89
2019-04-29T09:29:58.817Z,95283.16
2019-04-29T09:33:08.695Z,95286.52
2019-04-29T09:36:16.877Z,95287.14
2019-04-29T09:39:24.827Z,95281.48
2019-04-29T09:42:45.435Z,95279.92
2019-04-29T09:46:00.401Z,95276.72
2019-04-29T09:49:08.680Z,95278.94
2019-04-29T09:52:16.094Z,95275.59
2019-04-29T09:55:24.177Z,95274.24
2019-04-29T09:58:31.670Z,95273.41
2019-04-29T10:01:46.021Z,95268.70
2019-04-29T10:05:16.658Z,95264.84
2019-04-29T10:08:24.285Z,95264.45
2019-04-29T10:11:31.661Z,95255.38
2019-04-29T10:14:39.163Z,95258.99
2019-04-29T10:17:56.200Z,95253.36
2019-04-29T10:21:07.347Z,95257.87
2019-04-29T10:24:14.894Z,95257.05
2019-04-29T10:27:22.797Z,95256.83
2019-04-29T10:30:32.527Z,95258.22
2019-04-29T10:33:40.317Z,95253.12
2019-04-29T10:36:52.175Z,95247.84
2019-04-29T10:40:20.818Z,95241.77
2019-04-29T10:43:49.314Z,95235.41
2019-04-29T10:47:14.970Z,95240.56
2019-04-29T10:50:29.533Z,95226.77
2019-04-29T10:53:36.932Z,95230.09
2019-04-29T10:56:44.689Z,95225.42
2019-04-29T11:00:00.937Z,95224.91
2019-04-29T11:03:07.379Z,95219.72
2019-04-29T11:06:16.301Z,95217.56
2019-04-29T11:09:58.531Z,95226.34
2019-04-29T11:13:06.455Z,95225.39
2019-04-29T11:16:14.164Z,95233.86
2019-04-29T11:19:21.789Z,95226.67
2019-04-29T11:22:33.866Z,95228.50
2019-04-29T11:25:58.284Z,95234.78
2019-04-29T11:29:09.210Z,95228.92
2019-04-29T11:32:29.201Z,95229.68
2019-04-29T11:35:43.298Z,95230.70
2019-04-29T11:38:51.099Z,95231.05
2019-04-29T11:41:59.812Z,95228.45
2019-04-29T11:45:09.016Z,95230.84
2019-04-29T11:48:16.961Z,95232.06
2019-04-29T11:51:34.185Z,95227.15
2019-04-29T11:54:42.087Z,95224.31
2019-04-29T11:57:54.897Z,95223.78
2019-04-29T12:01:10.700Z,95224.34
2019-04-29T12:04:33.419Z,95222.72
2019-04-29T12:07:40.887Z,95217.72
2019-04-29T12:11:05.680Z,95208.97
2019-04-29T12:14:16.203Z,95209.58
2019-04-29T12:17:28.383Z,95207.02
2019-04-29T12:20:55.991Z,95205.42
2019-04-29T12:24:06.211Z,95208.67
2019-04-29T12:27:14.857Z,95202.27
2019-04-29T12:30:29.817Z,95196.11
2019-04-29T12:33:45.579Z,95191.61
2019-04-29T12:36:56.619Z,95198.78
2019-04-29T12:40:22.336Z,95196.71
2019-04-29T12:43:40.810Z,95192.05
2019-04-29T12:47:25.336Z,95190.45
2019-04-29T12:50:21.659Z,95188.71
2019-04-29T12:53:30.452Z,95186.31
2019-04-29T12:56:43.128Z,95188.02
2019-04-29T12:59:49.912Z,95182.00
2019-04-29T13:03:20.286Z,95184.58
2019-04-29T13:06:39.827Z,95176.67
2019-04-29T13:09:49.640Z,95168.97
2019-04-29T13:12:58.467Z,95171.95
2019-04-29T13:16:20.202Z,95175.79
2019-04-29T13:19:31.137Z,95167.53
2019-04-29T13:22:39.332Z,95162.84
2019-04-29T13:25:51.070Z,95169.67
2019-04-29T13:29:01.422Z,95166.11
2019-04-29T13:32:06.475Z,95166.31
2019-04-29T13:35:14.748Z,95159.70
2019-04-29T13:38:22.361Z,95160.95
2019-04-29T13:41:30.049Z,95159.53
2019-04-29T13:44:42.673Z,95161.06
2019-04-29T13:48:07.575Z,95167.23
2019-04-29T13:51:34.686Z,95172.69
2019-04-29T13:54:30.743Z,95173.30
2019-04-29T13:57:38.672Z,95169.69
2019-04-29T14:01:01.945Z,95158.98
2019-04-29T14:04:35.115Z,95163.08
2019-04-29T14:07:42.585Z,95159.57
2019-04-29T14:10:51.109Z,95156.41
2019-04-29T14:14:00.349Z,95157.16
2019-04-29T14:17:25.453Z,95167.71
2019-04-29T14:20:19.551Z,95164.16
2019-04-29T14:23:29.818Z,95161.09
2019-04-29T14:26:41.929Z,95166.27
2019-04-29T14:29:47.646Z,95160.81
2019-04-29T14:33:01.710Z,95169.16
2019-04-29T14:36:09.045Z,95170.31
2019-04-29T14:39:22.145Z,95167.70
2019-04-29T14:43:02.863Z,95171.62
2019-04-29T14:46:46.359Z,95162.21
2019-04-29T14:49:57.071Z,95163.35
2019-04-29T14:53:04.516Z,95152.17
2019-04-29T14:56:11.880Z,95160.70
2019-04-29T14:59:20.388Z,95153.77
2019-04-29T15:02:31.100Z,95156.57
2019-04-29T15:05:38.654Z,95147.98
2019-04-29T15:08:46.334Z,95151.64
2019-04-29T15:12:17.223Z,95149.06
2019-04-29T15:15:47.571Z,95154.77
2019-04-29T15:19:14.766Z,95158.12
2019-04-29T15:22:26.107Z,95150.77
2019-04-29T15:25:33.795Z,95155.39
2019-04-29T15:28:50.929Z,95152.89
2019-04-29T15:31:58.852Z,95152.25
2019-04-29T15:35:07.110Z,95158.02
2019-04-29T15:38:15.327Z,95164.22
2019-04-29T15:41:29.722Z,95162.36
2019-04-29T15:44:33.253Z,95166.94
2019-04-29T15:47:41.540Z,95177.58
2019-04-29T15:50:50.343Z,95170.73
2019-04-29T15:53:58.122Z,95182.45
2019-04-29T15:57:09.151Z,95182.63
2019-04-29T16:00:21.839Z,95183.41
2019-04-29T16:03:25.520Z,95181.89
2019-04-29T16:06:44.549Z,95181.75
2019-04-29T16:10:22.360Z,95181.06
2019-04-29T16:13:30.272Z,95181.81
2019-04-29T16:16:38.371Z,95179.77
2019-04-29T16:19:45.920Z,95180.33
2019-04-29T16:22:54.187Z,95177.53
2019-04-29T16:26:03.166Z,95177.00
2019-04-29T16:29:51.564Z,95172.34
2019-04-29T16:32:58.910Z,95175.64
2019-04-29T16:36:06.576Z,95183.11
2019-04-29T16:39:14.236Z,95177.98
2019-04-29T16:42:31.464Z,95183.47
2019-04-29T16:45:54.478Z,95184.11
2019-04-29T16:49:02.287Z,95187.19
2019-04-29T16:52:10.561Z,95189.70
2019-04-29T16:55:19.351Z,95191.13
2019-04-29T16:58:28.059Z,95188.00
2019-04-29T17:01:36.707Z,95192.80
2019-04-29T17:04:44.252Z,95199.83
2019-04-29T17:07:51.842Z,95196.19
2019-04-29T17:11:12.072Z,95197.97
2019-04-29T17:14:20.931Z,95194.13
2019-04-29T17:17:29.587Z,95195.92
2019-04-29T17:20:37.955Z,95194.69
2019-04-29T17:23:46.110Z,95193.75
2019-04-29T17:27:19.474Z,95198.56
2019-04-29T17:30:48.599Z,95194.97
2019-04-29T17:34:29.386Z,95196.70
2019-04-29T17:37:27.227Z,95191.00
2019-04-29T17:40:35.540Z,95189.04
2019-04-29T17:44:09.898Z,95194.32
2019-04-29T17:47:49.133Z,95193.02
2019-04-29T17:51:02.515Z,95198.33
2019-04-29T17:54:12.319Z,95201.35
2019-04-29T17:57:39.606Z,95201.55
2019-04-29T18:01:05.469Z,95198.63
2019-04-29T18:04:33.193Z,95206.91
2019-04-29T18:07:55.331Z,95198.13
2019-04-29T18:11:07.840Z,95199.86
2019-04-29T18:14:14.983Z,95205.84
2019-04-29T18:17:31.193Z,95201.77
2019-04-29T18:21:21.565Z,95205.84
2019-04-29T18:24:55.525Z,95211.08
2019-04-29T18:28:05.088Z,95212.44
2019-04-29T18:31:14.179Z,95212.28
2019-04-29T18:34:22.291Z,95213.69
2019-04-29T18:37:30.470Z,95214.95
2019-04-29T18:40:41.878Z,95215.73
2019-04-29T18:43:49.873Z,95219.28
2019-04-29T18:46:57.515Z,95219.57
2019-04-29T18:50:05.395Z,95217.84
2019-04-29T18:53:15.469Z,95219.98
2019-04-29T18:56:23.590Z,95218.05
2019-04-29T18:59:33.237Z,95219.12
2019-04-29T19:02:47.812Z,95218.91
2019-04-29T19:05:55.168Z,95224.31
2019-04-29T19:09:17.216Z,95224.18
2019-04-29T19:12:15.641Z,95224.64
2019-04-29T19:15:25.506Z,95230.04
2019-04-29T19:18:33.069Z,95223.86
2019-04-29T19:21:41.351Z,95225.30
2019-04-29T19:24:49.823Z,95228.45
2019-04-29T19:28:11.831Z,95234.89
2019-04-29T19:31:11.545Z,95241.48
2019-04-29T19:34:19.340Z,95241.33
2019-04-29T19:37:32.507Z,95232.70
2019-04-29T19:40:42.529Z,95235.38
2019-04-29T19:43:54.996Z,95234.42
2019-04-29T19:46:59.874Z,95236.27
2019-04-29T19:50:10.441Z,95232.58
2019-04-29T19:53:18.257Z,95232.55
2019-04-29T19:56:27.079Z,95236.25
2019-04-29T19:59:36.786Z,95234.09
2019-04-29T20:02:48.230Z,95239.23
2019-04-29T20:06:08.180Z,95239.63
2019-04-29T20:09:17.068Z,95239.23
2019-04-29T20:12:29.735Z,95237.09
2019-04-29T20:15:49.611Z,95238.16
2019-04-29T20:19:21.663Z,95236.56
2019-04-29T20:22:29.970Z,95234.31
2019-04-29T20:25:38.782Z,95232.89
2019-04-29T20:28:46.595Z,95226.75
2019-04-29T20:31:56.620Z,95223.31
2019-04-29T20:35:08.346Z,95225.81
2019-04-29T20:38:15.783Z,95232.01
2019-04-29T20:41:40.390Z,95222.64
2019-04-29T20:44:36.582Z,95225.62
2019-04-29T20:47:45.514Z,95213.25
2019-04-29T20:50:54.662Z,95207.50
2019-04-29T20:54:18.845Z,95203.69
2019-04-29T20:57:25.102Z,95198.48
2019-04-29T21:00:35.238Z,95202.08
2019-04-29T21:03:46.252Z,95192.63
2019-04-29T21:07:00.297Z,95185.48
2019-04-29T21:10:06.745Z,95197.63
2019-04-29T21:13:22.508Z,95200.20
2019-04-29T21:16:35.711Z,95203.62
2019-04-29T21:19:43.462Z,95208.88
2019-04-29T21:22:52.524Z,95209.17
2019-04-29T21:26:05.320Z,95198.34
2019-04-29T21:29:15.799Z,95195.72
2019-04-29T21:32:20.386Z,95195.98
2019-04-29T21:35:41.945Z,95193.23
2019-04-29T21:39:07.598Z,95191.74
2019-04-29T21:42:28.062Z,95197.41
2019-04-29T21:45:35.544Z,95196.73
2019-04-29T21:48:43.347Z,95196.22
2019-04-29T21:51:51.032Z,95190.98
2019-04-29T21:54:58.831Z,95197.45
2019-04-29T21:58:06.526Z,95196.52
2019-04-29T22:01:15.318Z,95191.61
2019-04-29T22:04:22.796Z,95196.67
2019-04-29T22:07:30.894Z,95194.33
2019-04-29T22:10:38.315Z,95188.61
2019-04-29T22:13:45.602Z,95197.50
2019-04-29T22:16:56.884Z,95203.94
2019-04-29T22:20:07.723Z,95196.82
2019-04-29T22:23:17.281Z,95195.47
2019-04-29T22:26:26.884Z,95187.41
2019-04-29T22:29:37.319Z,95183.09
2019-04-29T22:32:46.836Z,95176.33
2019-04-29T22:35:55.493Z,95184.41
2019-04-29T22:39:06.194Z,95180.41
2019-04-29T22:42:32.979Z,95179.59
2019-04-29T22:45:40.840Z,95180.95
2019-04-29T22:48:48.863Z,95181.89
2019-04-29T22:51:57.242Z,95175.23
2019-04-29T22:55:05.620Z,95178.73
2019-04-29T22:58:14.975Z,95176.84
2019-04-29T23:01:22.257Z,95166.89
2019-04-29T23:04:30.066Z,95159.17
2019-04-29T23:07:38.759Z,95159.57
2019-04-29T23:10:46.075Z,95160.60
2019-04-29T23:13:55.312Z,95159.82
2019-04-29T23:17:06.143Z,95164.02
2019-04-29T23:20:36.422Z,95159.61
2019-04-29T23:23:48.056Z,95163.30
2019-04-29T23:26:56.024Z,95153.23
2019-04-29T23:30:05.523Z,95154.55
2019-04-29T23:33:15.065Z,95156.62
2019-04-29T23:36:25.606Z,95151.42
2019-04-29T23:39:34.811Z,95145.03
2019-04-29T23:42:47.487Z,95150.61
2019-04-29T23:45:56.936Z,95144.94
2019-04-29T23:49:04.654Z,95148.79
2019-04-29T23:52:17.861Z,95142.91
2019-04-29T23:55:29.238Z,95137.81
2019-04-29T23:58:46.968Z,95138.88
